createdAt,value
2017-07-18T00:00:58.002Z,10.83
2017-07-18T00:03:25.627Z,14.20
2017-07-18T00:05:53.144Z,12.30
2017-07-18T00:08:20.694Z,11.90
2017-07-18T00:10:48.207Z,14.67
2017-07-18T00:13:15.782Z,14.57
2017-07-18T00:15:43.310Z,14.40
2017-07-18T00:18:10.864Z,12.23
2017-07-18T00:20:38.385Z,12.37
2017-07-18T00:23:05.904Z,13.70
2017-07-18T00:25:33.457Z,15.40
2017-07-18T00:28:00.974Z,13.80
2017-07-18T00:30:28.529Z,13.00
2017-07-18T00:32:56.059Z,11.67
2017-07-18T00:35:23.699Z,13.03
2017-07-18T00:37:51.338Z,13.17
2017-07-18T00:40:18.894Z,15.77
2017-07-18T00:42:46.495Z,17.70
2017-07-18T00:45:14.060Z,14.27
2017-07-18T00:47:41.613Z,13.20
2017-07-18T00:50:09.239Z,13.73
2017-07-18T00:52:36.795Z,14.40
2017-07-18T00:55:04.336Z,12.00
2017-07-18T00:57:31.848Z,12.10
2017-07-18T00:59:59.400Z,15.10
2017-07-18T01:02:26.923Z,13.60
2017-07-18T01:04:54.478Z,16.73
2017-07-18T01:07:22.010Z,12.37
2017-07-18T01:09:49.561Z,16.50
2017-07-18T01:12:17.076Z,16.00
2017-07-18T01:14:44.597Z,13.93
2017-07-18T01:17:12.146Z,14.77
2017-07-18T01:19:39.677Z,12.77
2017-07-18T01:22:07.218Z,12.30
2017-07-18T01:24:34.767Z,20.50
2017-07-18T01:27:02.395Z,12.80
2017-07-18T01:29:29.926Z,14.43
2017-07-18T01:31:57.471Z,15.80
2017-07-18T01:34:25.001Z,18.53
2017-07-18T01:36:52.554Z,17.90
2017-07-18T01:39:20.123Z,14.30
2017-07-18T01:41:47.683Z,10.70
2017-07-18T01:44:15.245Z,13.73
2017-07-18T01:46:42.802Z,13.50
2017-07-18T01:49:10.320Z,13.40
2017-07-18T01:51:37.864Z,13.57
2017-07-18T01:54:05.390Z,12.50
2017-07-18T01:56:32.950Z,14.17
2017-07-18T01:59:00.458Z,13.43
2017-07-18T02:01:28.001Z,13.40
2017-07-18T02:03:55.520Z,15.17
2017-07-18T02:06:23.041Z,14.10
2017-07-18T02:08:50.593Z,14.10
2017-07-18T02:11:18.112Z,18.70
2017-07-18T02:13:45.667Z,14.73
2017-07-18T02:16:13.216Z,15.40
2017-07-18T02:18:40.776Z,15.00
2017-07-18T02:21:08.298Z,13.47
2017-07-18T02:23:35.844Z,16.40
2017-07-18T02:26:03.365Z,13.60
2017-07-18T02:28:30.916Z,16.23
2017-07-18T02:30:58.471Z,13.17
2017-07-18T02:33:26.195Z,18.40
2017-07-18T02:35:53.710Z,13.20
2017-07-18T02:38:21.264Z,14.57
2017-07-18T02:40:48.797Z,14.87
2017-07-18T02:43:16.361Z,13.47
2017-07-18T02:45:43.876Z,13.27
2017-07-18T02:48:11.444Z,12.87
2017-07-18T02:50:39.052Z,16.37
2017-07-18T02:53:06.597Z,12.00
2017-07-18T02:55:34.108Z,11.90
2017-07-18T02:58:01.630Z,15.00
2017-07-18T03:00:29.172Z,11.23
2017-07-18T03:02:56.698Z,14.77
2017-07-18T03:05:24.261Z,14.37
2017-07-18T03:07:51.781Z,16.50
2017-07-18T03:10:19.336Z,14.53
2017-07-18T03:12:46.858Z,11.40
2017-07-18T03:15:14.409Z,15.57
2017-07-18T03:17:41.950Z,11.63
2017-07-18T03:20:09.508Z,14.97
2017-07-18T03:22:37.039Z,11.97
2017-07-18T03:25:04.597Z,14.87
2017-07-18T03:27:33.057Z,18.93
2017-07-18T03:30:00.610Z,18.03
2017-07-18T03:32:28.311Z,18.40
2017-07-18T03:34:55.877Z,19.17
2017-07-18T03:37:23.394Z,17.17
2017-07-18T03:39:50.949Z,15.43
2017-07-18T03:42:18.482Z,13.70
2017-07-18T03:44:46.029Z,13.40
2017-07-18T03:47:13.546Z,14.47
2017-07-18T03:49:43.458Z,13.20
2017-07-18T03:52:11.015Z,16.20
2017-07-18T03:54:38.533Z,12.13
2017-07-18T03:57:06.085Z,14.20
2017-07-18T03:59:33.611Z,15.47
2017-07-18T04:02:01.217Z,13.63
2017-07-18T04:04:28.737Z,14.70
2017-07-18T04:06:56.332Z,16.00
2017-07-18T04:09:23.893Z,11.40
2017-07-18T04:11:51.446Z,19.50
2017-07-18T04:14:18.965Z,15.20
2017-07-18T04:16:48.222Z,12.80
2017-07-18T04:19:15.743Z,18.17
2017-07-18T04:21:43.284Z,11.40
2017-07-18T04:24:10.806Z,13.47
2017-07-18T04:26:38.449Z,12.63
2017-07-18T04:29:05.969Z,13.07
2017-07-18T04:31:33.524Z,11.63
2017-07-18T04:34:01.043Z,12.17
2017-07-18T04:36:28.596Z,12.43
2017-07-18T04:38:56.119Z,16.43
2017-07-18T04:41:23.641Z,19.63
2017-07-18T04:43:51.242Z,13.57
2017-07-18T04:46:18.757Z,23.93
2017-07-18T04:48:46.305Z,12.13
2017-07-18T04:51:13.821Z,13.53
2017-07-18T04:53:41.369Z,17.53
2017-07-18T04:56:08.892Z,19.97
2017-07-18T04:58:36.451Z,22.00
2017-07-18T05:01:04.007Z,20.00
2017-07-18T05:03:31.662Z,21.70
2017-07-18T05:05:59.185Z,20.63
2017-07-18T05:08:26.750Z,19.73
2017-07-18T05:10:54.270Z,20.87
2017-07-18T05:13:21.825Z,12.80
2017-07-18T05:15:49.356Z,19.03
2017-07-18T05:18:16.897Z,14.77
2017-07-18T05:20:44.414Z,18.43
2017-07-18T05:23:11.969Z,16.00
2017-07-18T05:25:39.500Z,17.87
2017-07-18T05:28:07.056Z,20.27
2017-07-18T05:30:34.569Z,16.43
2017-07-18T05:33:02.087Z,14.03
2017-07-18T05:35:29.632Z,22.83
2017-07-18T05:37:57.197Z,18.90
2017-07-18T05:40:24.756Z,14.50
2017-07-18T05:42:52.278Z,15.57
2017-07-18T05:45:19.820Z,12.80
2017-07-18T05:47:47.338Z,15.17
2017-07-18T05:50:14.890Z,14.50
2017-07-18T05:52:42.405Z,10.50
2017-07-18T05:55:09.957Z,14.17
2017-07-18T05:57:37.472Z,13.87
2017-07-18T06:00:05.023Z,14.20
2017-07-18T06:02:32.580Z,16.07
2017-07-18T06:05:00.153Z,11.57
2017-07-18T06:07:27.698Z,16.80
2017-07-18T06:09:55.363Z,11.63
2017-07-18T06:12:22.924Z,15.50
2017-07-18T06:14:50.468Z,15.63
2017-07-18T06:17:18.041Z,15.40
2017-07-18T06:19:45.704Z,13.90
2017-07-18T06:22:13.266Z,18.07
2017-07-18T06:24:40.777Z,24.93
2017-07-18T06:27:08.325Z,18.00
2017-07-18T06:29:35.839Z,19.30
2017-07-18T06:32:03.397Z,18.73
2017-07-18T06:34:30.910Z,17.30
2017-07-18T06:36:58.461Z,21.63
2017-07-18T06:39:26.079Z,20.03
2017-07-18T06:41:53.627Z,18.23
2017-07-18T06:44:21.149Z,23.53
2017-07-18T06:46:48.710Z,21.43
2017-07-18T06:49:16.232Z,17.50
2017-07-18T06:51:43.784Z,23.13
2017-07-18T06:54:11.337Z,16.87
2017-07-18T06:56:38.887Z,15.13
2017-07-18T06:59:06.399Z,18.53
2017-07-18T07:01:34.019Z,17.03
2017-07-18T07:04:01.575Z,18.27
2017-07-18T07:06:29.121Z,21.53
2017-07-18T07:08:56.637Z,21.23
2017-07-18T07:11:24.196Z,23.00
2017-07-18T07:13:51.722Z,20.07
2017-07-18T07:16:19.255Z,21.40
2017-07-18T07:18:46.795Z,15.90
2017-07-18T07:21:14.308Z,21.40
2017-07-18T07:23:41.952Z,15.10
2017-07-18T07:26:09.474Z,19.73
2017-07-18T07:28:37.027Z,19.73
2017-07-18T07:31:04.548Z,14.47
2017-07-18T07:33:32.091Z,16.40
2017-07-18T07:35:59.614Z,19.23
2017-07-18T07:38:27.166Z,15.50
2017-07-18T07:40:54.688Z,15.83
2017-07-18T07:43:22.227Z,14.43
2017-07-18T07:45:49.743Z,17.23
2017-07-18T07:48:17.289Z,15.43
2017-07-18T07:50:44.796Z,19.77
2017-07-18T07:53:12.473Z,15.13
2017-07-18T07:55:39.988Z,17.40
2017-07-18T07:58:07.544Z,13.57
2017-07-18T08:00:35.059Z,14.10
2017-07-18T08:03:02.579Z,17.23
2017-07-18T08:05:30.133Z,15.10
2017-07-18T08:07:57.645Z,11.70
2017-07-18T08:10:25.192Z,16.10
2017-07-18T08:12:52.719Z,16.57
2017-07-18T08:15:20.265Z,15.03
2017-07-18T08:17:47.786Z,15.17
2017-07-18T08:20:15.328Z,15.60
2017-07-18T08:22:42.850Z,19.10
2017-07-18T08:25:10.391Z,11.90
2017-07-18T08:27:37.908Z,14.30
2017-07-18T08:30:05.457Z,13.60
2017-07-18T08:32:32.980Z,14.33
2017-07-18T08:35:00.523Z,13.87
2017-07-18T08:37:28.036Z,15.47
2017-07-18T08:39:55.582Z,14.90
2017-07-18T08:42:23.095Z,12.77
2017-07-18T08:44:50.642Z,16.13
2017-07-18T08:47:18.175Z,18.23
2017-07-18T08:49:45.835Z,11.10
2017-07-18T08:52:13.383Z,11.30
2017-07-18T08:54:40.901Z,21.73
2017-07-18T08:57:08.451Z,18.73
2017-07-18T08:59:35.957Z,10.87
2017-07-18T09:02:03.499Z,15.80
2017-07-18T09:04:31.009Z,10.70
2017-07-18T09:06:58.553Z,13.13
2017-07-18T09:09:26.072Z,11.23
2017-07-18T09:11:53.620Z,14.10
2017-07-18T09:16:47.729Z,11.77
2017-07-18T09:19:15.245Z,14.07
2017-07-18T09:21:42.792Z,11.20
2017-07-18T09:24:10.300Z,10.53
2017-07-18T09:26:37.863Z,10.77
2017-07-18T09:29:05.373Z,10.53
2017-07-18T09:31:32.928Z,14.00
2017-07-18T09:34:00.446Z,10.67
2017-07-18T09:36:27.988Z,9.77
2017-07-18T09:38:55.506Z,9.80
2017-07-18T09:41:23.050Z,12.83
2017-07-18T09:43:50.564Z,11.13
2017-07-18T09:46:18.072Z,12.90
2017-07-18T09:48:45.629Z,12.90
2017-07-18T09:51:13.144Z,10.87
2017-07-18T09:53:40.681Z,9.43
2017-07-18T09:56:08.192Z,9.43
2017-07-18T09:58:35.741Z,8.80
2017-07-18T10:01:03.255Z,10.53
2017-07-18T10:03:30.788Z,9.03
2017-07-18T10:05:58.301Z,8.67
2017-07-18T10:08:25.842Z,12.30
2017-07-18T10:10:53.353Z,9.23
2017-07-18T10:13:20.902Z,8.47
2017-07-18T10:15:48.420Z,10.97
2017-07-18T10:18:15.961Z,6.30
2017-07-18T10:20:43.473Z,8.27
2017-07-18T10:23:11.015Z,9.90
2017-07-18T10:25:38.541Z,9.17
2017-07-18T10:28:06.079Z,7.00
2017-07-18T10:30:33.594Z,12.37
2017-07-18T10:33:01.150Z,7.23
2017-07-18T10:35:28.670Z,7.00
2017-07-18T10:37:56.179Z,7.50
2017-07-18T10:40:23.723Z,11.00
2017-07-18T10:42:51.236Z,8.80
2017-07-18T10:45:18.768Z,8.23
2017-07-18T10:47:46.277Z,7.00
2017-07-18T10:50:13.814Z,10.40
2017-07-18T10:52:41.325Z,7.07
2017-07-18T10:55:08.876Z,8.60
2017-07-18T10:57:36.393Z,8.93
2017-07-18T11:00:03.924Z,6.40
2017-07-18T11:02:31.440Z,7.47
2017-07-18T11:04:58.980Z,8.23
2017-07-18T11:07:26.496Z,7.40
2017-07-18T11:09:54.039Z,6.53
2017-07-18T11:12:21.547Z,9.37
2017-07-18T11:14:49.088Z,6.10
2017-07-18T11:17:16.601Z,6.93
2017-07-18T11:19:44.164Z,6.33
2017-07-18T11:22:11.683Z,11.33
2017-07-18T11:24:39.189Z,4.90
2017-07-18T11:27:06.734Z,8.67
2017-07-18T11:29:34.244Z,7.03
2017-07-18T11:32:01.780Z,5.93
2017-07-18T11:34:29.284Z,7.47
2017-07-18T11:36:56.825Z,7.77
2017-07-18T11:39:24.336Z,5.97
2017-07-18T11:41:51.898Z,11.63
2017-07-18T11:44:19.408Z,7.17
2017-07-18T11:46:46.961Z,5.43
2017-07-18T11:49:14.463Z,5.13
2017-07-18T11:51:42.008Z,4.90
2017-07-18T11:54:09.518Z,6.07
2017-07-18T11:56:37.056Z,5.40
2017-07-18T11:59:04.580Z,6.00
2017-07-18T12:01:32.127Z,7.07
2017-07-18T12:03:59.639Z,4.13
2017-07-18T12:06:27.163Z,5.70
2017-07-18T12:08:54.711Z,9.33
2017-07-18T12:11:22.222Z,5.47
2017-07-18T12:13:49.774Z,6.70
2017-07-18T12:16:17.288Z,8.23
2017-07-18T12:18:56.616Z,5.00
2017-07-18T12:21:24.126Z,4.93
2017-07-18T12:23:51.668Z,6.77
2017-07-18T12:26:19.186Z,6.70
2017-07-18T12:28:46.735Z,7.53
2017-07-18T12:31:14.244Z,5.10
2017-07-18T12:33:41.783Z,5.00
2017-07-18T12:36:09.301Z,5.00
2017-07-18T12:38:36.841Z,5.60
2017-07-18T12:41:04.357Z,4.60
2017-07-18T12:43:31.900Z,8.70
2017-07-18T12:45:59.416Z,4.73
2017-07-18T12:48:27.003Z,7.07
2017-07-18T12:50:54.510Z,4.30
2017-07-18T12:53:22.017Z,4.70
2017-07-18T12:55:49.566Z,5.93
2017-07-18T12:58:17.067Z,4.93
2017-07-18T13:00:44.634Z,7.23
2017-07-18T13:03:12.148Z,5.40
2017-07-18T13:05:39.706Z,4.63
2017-07-18T13:08:07.220Z,3.97
2017-07-18T13:10:34.773Z,6.20
2017-07-18T13:13:02.292Z,4.73
2017-07-18T13:15:29.849Z,7.60
2017-07-18T13:17:57.365Z,4.70
2017-07-18T13:20:24.909Z,4.70
2017-07-18T13:22:52.426Z,4.47
2017-07-18T13:25:19.975Z,4.60
2017-07-18T13:27:47.482Z,7.60
2017-07-18T13:30:15.025Z,3.77
2017-07-18T13:32:42.537Z,3.90
2017-07-18T13:35:10.089Z,4.93
2017-07-18T13:37:37.603Z,4.37
2017-07-18T13:40:05.117Z,4.63
2017-07-18T13:42:32.656Z,4.07
2017-07-18T13:45:00.172Z,4.10
2017-07-18T13:47:27.715Z,6.17
2017-07-18T13:49:55.225Z,3.40
2017-07-18T13:52:22.784Z,5.30
2017-07-18T13:54:50.290Z,4.90
2017-07-18T13:57:17.822Z,5.63
2017-07-18T13:59:45.343Z,5.93
2017-07-18T14:02:12.889Z,3.70
2017-07-18T14:04:40.401Z,3.90
2017-07-18T14:07:07.938Z,3.53
2017-07-18T14:09:35.447Z,4.57
2017-07-18T14:12:02.996Z,4.37
2017-07-18T14:14:30.507Z,3.77
2017-07-18T14:16:58.062Z,3.70
2017-07-18T14:19:25.577Z,4.00
2017-07-18T14:21:53.117Z,3.30
2017-07-18T14:24:20.624Z,4.50
2017-07-18T14:26:48.174Z,5.73
2017-07-18T14:29:15.689Z,3.77
2017-07-18T14:31:43.199Z,3.13
2017-07-18T14:34:10.744Z,4.80
2017-07-18T14:36:38.259Z,3.40
2017-07-18T14:39:05.805Z,3.20
2017-07-18T14:41:33.318Z,3.60
2017-07-18T14:44:00.871Z,3.20
2017-07-18T14:46:28.385Z,3.53
2017-07-18T14:48:55.929Z,4.67
2017-07-18T14:51:23.435Z,3.23
2017-07-18T14:53:50.969Z,3.27
2017-07-18T14:56:18.479Z,3.90
2017-07-18T14:58:46.033Z,3.50
2017-07-18T15:01:13.542Z,2.97
2017-07-18T15:03:41.085Z,3.80
2017-07-18T15:06:08.608Z,4.00
2017-07-18T15:08:36.140Z,5.33
2017-07-18T15:11:03.646Z,2.90
2017-07-18T15:13:31.185Z,4.10
2017-07-18T15:15:58.696Z,3.73
2017-07-18T15:18:26.210Z,2.27
2017-07-18T15:20:53.773Z,3.10
2017-07-18T15:23:21.291Z,2.50
2017-07-18T15:25:48.838Z,2.50
2017-07-18T15:28:16.354Z,3.70
2017-07-18T15:30:43.896Z,3.60
2017-07-18T15:33:11.405Z,3.30
2017-07-18T15:35:38.942Z,3.23
2017-07-18T15:38:06.453Z,2.70
2017-07-18T15:40:33.985Z,2.77
2017-07-18T15:43:01.507Z,2.77
2017-07-18T15:45:29.044Z,3.07
2017-07-18T15:47:56.558Z,3.00
2017-07-18T15:50:24.102Z,2.67
2017-07-18T15:52:51.610Z,2.40
2017-07-18T15:55:19.156Z,2.93
2017-07-18T15:57:46.668Z,3.20
2017-07-18T16:00:14.233Z,2.50
2017-07-18T16:02:41.748Z,2.70
2017-07-18T16:05:09.270Z,2.50
2017-07-18T16:07:36.816Z,2.50
2017-07-18T16:10:04.331Z,3.03
2017-07-18T16:12:31.871Z,2.90
2017-07-18T16:14:59.385Z,3.37
2017-07-18T16:17:26.925Z,3.03
2017-07-18T16:19:54.432Z,3.30
2017-07-18T16:22:21.972Z,3.13
2017-07-18T16:24:49.501Z,2.80
2017-07-18T16:27:17.045Z,3.13
2017-07-18T16:29:44.560Z,3.60
2017-07-18T16:32:12.111Z,5.17
2017-07-18T16:34:39.620Z,3.77
2017-07-18T16:37:07.169Z,4.70
2017-07-18T16:39:34.757Z,5.00
2017-07-18T16:42:02.298Z,4.43
2017-07-18T16:44:29.810Z,3.07
2017-07-18T16:46:57.371Z,3.40
2017-07-18T16:49:24.896Z,5.63
2017-07-18T16:51:53.642Z,5.72
2017-07-18T16:54:21.223Z,3.30
2017-07-18T16:56:48.728Z,5.00
2017-07-18T16:59:16.268Z,4.17
2017-07-18T17:01:43.778Z,4.90
2017-07-18T17:04:11.337Z,3.90
2017-07-18T17:06:38.845Z,2.57
2017-07-18T17:09:06.388Z,4.10
2017-07-18T17:11:33.901Z,5.57
2017-07-18T17:14:01.451Z,2.20
2017-07-18T17:16:28.960Z,3.87
2017-07-18T17:18:56.504Z,3.90
2017-07-18T17:21:24.012Z,3.50
2017-07-18T17:23:51.556Z,3.57
2017-07-18T17:26:19.065Z,4.90
2017-07-18T17:28:46.604Z,3.80
2017-07-18T17:31:14.122Z,3.03
2017-07-18T17:33:41.673Z,2.70
2017-07-18T17:36:09.188Z,4.43
2017-07-18T17:38:36.733Z,4.50
2017-07-18T17:41:04.257Z,4.73
2017-07-18T17:43:31.773Z,2.73
2017-07-18T17:45:59.315Z,3.70
2017-07-18T17:48:26.827Z,3.50
2017-07-18T17:50:54.378Z,3.93
2017-07-18T17:53:21.898Z,6.77
2017-07-18T17:55:49.453Z,3.63
2017-07-18T17:58:16.965Z,4.20
2017-07-18T18:00:44.505Z,2.80
2017-07-18T18:03:12.027Z,3.83
2017-07-18T18:05:39.581Z,2.57
2017-07-18T18:08:07.098Z,2.50
2017-07-18T18:10:34.647Z,6.37
2017-07-18T18:13:02.161Z,7.23
2017-07-18T18:15:29.729Z,4.00
2017-07-18T18:17:57.251Z,3.20
2017-07-18T18:20:24.800Z,2.90
2017-07-18T18:22:52.329Z,25.20
2017-07-18T18:25:19.895Z,4.20
2017-07-18T18:27:47.633Z,6.00
2017-07-18T18:30:15.388Z,5.90
2017-07-18T18:32:43.108Z,2.53
2017-07-18T18:35:10.830Z,3.00
2017-07-18T18:37:38.396Z,5.03
2017-07-18T18:40:05.948Z,4.70
2017-07-18T18:42:33.490Z,6.30
2017-07-18T18:45:01.000Z,4.60
2017-07-18T18:47:28.673Z,11.83
2017-07-18T18:49:56.206Z,3.83
2017-07-18T18:52:23.752Z,3.83
2017-07-18T18:54:51.263Z,6.73
2017-07-18T18:57:18.840Z,16.67
2017-07-18T18:59:46.354Z,2.37
2017-07-18T19:02:13.909Z,6.10
2017-07-18T19:04:41.422Z,8.60
2017-07-18T19:07:08.961Z,6.57
2017-07-18T19:09:36.473Z,10.30
2017-07-18T19:12:04.017Z,7.20
2017-07-18T19:14:31.537Z,7.27
2017-07-18T19:16:59.047Z,6.57
2017-07-18T19:19:26.579Z,3.00
2017-07-18T19:21:54.097Z,12.10
2017-07-18T19:24:21.641Z,3.57
2017-07-18T19:26:49.152Z,9.30
2017-07-18T19:29:16.723Z,7.63
2017-07-18T19:31:44.236Z,9.67
2017-07-18T19:34:11.793Z,11.93
2017-07-18T19:36:39.345Z,12.07
2017-07-18T19:39:06.909Z,13.77
2017-07-18T19:41:34.422Z,6.37
2017-07-18T19:44:01.977Z,4.40
2017-07-18T19:46:29.493Z,5.73
2017-07-18T19:48:57.045Z,7.43
2017-07-18T19:51:24.566Z,8.07
2017-07-18T19:53:52.111Z,9.13
2017-07-18T19:56:19.625Z,14.30
2017-07-18T19:58:47.169Z,3.47
2017-07-18T20:01:14.689Z,10.37
2017-07-18T20:03:42.243Z,4.90
2017-07-18T20:06:09.759Z,5.33
2017-07-18T20:08:37.268Z,6.43
2017-07-18T20:11:04.817Z,10.07
2017-07-18T20:13:32.322Z,4.60
2017-07-18T20:15:59.870Z,6.20
2017-07-18T20:18:27.386Z,3.60
2017-07-18T20:20:54.928Z,6.57
2017-07-18T20:23:22.436Z,3.37
2017-07-18T20:25:49.987Z,5.20
2017-07-18T20:28:17.505Z,4.10
2017-07-18T20:30:45.047Z,8.63
2017-07-18T20:33:12.555Z,8.43
2017-07-18T20:35:40.105Z,5.83
2017-07-18T20:38:07.625Z,12.97
2017-07-18T20:40:35.178Z,27.30
2017-07-18T20:43:02.697Z,18.33
2017-07-18T20:45:30.255Z,15.53
2017-07-18T20:47:57.770Z,23.63
2017-07-18T20:50:25.297Z,19.00
2017-07-18T20:52:52.846Z,14.73
2017-07-18T20:55:20.364Z,20.67
2017-07-18T20:57:47.908Z,22.80
2017-07-18T21:00:15.443Z,7.63
2017-07-18T21:02:43.006Z,12.20
2017-07-18T21:07:44.415Z,9.67
2017-07-18T21:10:11.920Z,9.07
2017-07-18T21:12:39.469Z,11.13
2017-07-18T21:15:06.980Z,6.30
2017-07-18T21:17:34.534Z,10.33
2017-07-18T21:20:02.051Z,11.07
2017-07-18T21:22:29.601Z,21.10
2017-07-18T21:24:57.134Z,13.03
2017-07-18T21:27:24.697Z,29.05
2017-07-18T21:29:52.214Z,28.90
2017-07-18T21:32:19.760Z,36.33
2017-07-18T21:34:47.275Z,14.47
2017-07-18T21:37:14.828Z,18.40
2017-07-18T21:39:42.349Z,17.27
2017-07-18T21:42:09.864Z,22.43
2017-07-18T21:44:37.404Z,21.27
2017-07-18T21:47:04.944Z,9.43
2017-07-18T21:49:32.487Z,27.90
2017-07-18T21:52:00.015Z,27.23
2017-07-18T21:54:27.561Z,11.43
2017-07-18T21:56:55.073Z,26.00
2017-07-18T21:59:22.625Z,12.00
2017-07-18T22:01:50.133Z,11.03
2017-07-18T22:04:17.675Z,9.93
2017-07-18T22:06:45.191Z,11.83
2017-07-18T22:09:12.751Z,14.00
2017-07-18T22:11:40.265Z,9.70
2017-07-18T22:14:07.812Z,13.60
2017-07-18T22:16:35.330Z,13.37
2017-07-18T22:19:02.889Z,11.63
2017-07-18T22:21:30.398Z,9.73
2017-07-18T22:23:57.960Z,14.80
2017-07-18T22:26:25.465Z,7.80
2017-07-18T22:28:53.025Z,14.03
2017-07-18T22:31:20.536Z,38.17
2017-07-18T22:33:48.052Z,15.47
2017-07-18T22:36:15.594Z,8.23
2017-07-18T22:38:43.121Z,17.53
2017-07-18T22:41:10.674Z,5.77
2017-07-18T22:43:38.193Z,14.10
2017-07-18T22:46:05.733Z,6.03
2017-07-18T22:48:33.248Z,12.37
2017-07-18T22:51:00.791Z,9.53
2017-07-18T22:53:28.313Z,26.50
2017-07-18T22:55:55.855Z,17.73
2017-07-18T22:58:23.381Z,15.03
2017-07-18T23:00:50.919Z,10.17
2017-07-18T23:03:18.438Z,12.23
2017-07-18T23:05:45.989Z,19.30
2017-07-18T23:08:13.506Z,12.40
2017-07-18T23:10:41.053Z,11.97
2017-07-18T23:13:08.566Z,8.67
2017-07-18T23:15:36.124Z,11.77
2017-07-18T23:18:03.716Z,13.23
2017-07-18T23:20:31.228Z,16.33
2017-07-18T23:22:58.780Z,12.77
2017-07-18T23:25:26.292Z,11.67
2017-07-18T23:27:53.835Z,8.43
2017-07-18T23:30:21.354Z,14.53
2017-07-18T23:32:48.899Z,9.63
2017-07-18T23:35:16.410Z,14.60
2017-07-18T23:37:43.953Z,8.40
2017-07-18T23:40:11.456Z,8.43
2017-07-18T23:42:39.018Z,9.10
2017-07-18T23:45:06.533Z,18.30
2017-07-18T23:47:34.075Z,10.70
2017-07-18T23:50:01.599Z,11.50
2017-07-18T23:52:29.160Z,11.67
2017-07-18T23:54:56.720Z,12.80
2017-07-18T23:57:24.263Z,8.40
2017-07-18T23:59:51.764Z,15.80
